createdAt,value
2018-05-23T00:01:33.868Z,82.52
2018-05-23T00:04:03.142Z,82.26
2018-05-23T00:06:31.545Z,82.13
2018-05-23T00:09:00.164Z,81.85
2018-05-23T00:11:28.526Z,82.19
2018-05-23T00:13:57.463Z,82.46
2018-05-23T00:16:25.814Z,82.29
2018-05-23T00:18:54.484Z,82.28
2018-05-23T00:21:23.314Z,82.55
2018-05-23T00:23:51.688Z,82.52
2018-05-23T00:26:21.703Z,82.14
2018-05-23T00:28:50.121Z,82.24
2018-05-23T00:31:18.502Z,82.06
2018-05-23T00:33:46.928Z,81.73
2018-05-23T00:36:15.301Z,82.14
2018-05-23T00:38:43.678Z,82.30
2018-05-23T00:41:13.301Z,82.55
2018-05-23T00:43:41.743Z,82.78
2018-05-23T00:46:10.086Z,83.03
2018-05-23T00:48:39.587Z,83.26
2018-05-23T00:51:09.551Z,82.85
2018-05-23T00:53:37.966Z,82.53
2018-05-23T00:56:07.234Z,83.00
2018-05-23T00:58:37.430Z,83.04
2018-05-23T01:01:05.782Z,83.39
2018-05-23T01:03:34.810Z,83.40
2018-05-23T01:06:03.453Z,83.33
2018-05-23T01:08:32.507Z,83.80
2018-05-23T01:11:01.486Z,84.02
2018-05-23T01:13:29.862Z,83.90
2018-05-23T01:15:58.363Z,83.63
2018-05-23T01:18:26.859Z,83.44
2018-05-23T01:20:55.556Z,83.15
2018-05-23T01:23:25.424Z,83.13
2018-05-23T01:25:55.182Z,82.84
2018-05-23T01:28:23.521Z,83.64
2018-05-23T01:30:52.731Z,83.62
2018-05-23T01:33:21.062Z,83.33
2018-05-23T01:35:50.230Z,83.11
2018-05-23T01:38:18.829Z,82.52
2018-05-23T01:40:47.209Z,82.61
2018-05-23T01:43:15.546Z,82.56
2018-05-23T01:45:43.974Z,82.29
2018-05-23T01:48:14.124Z,82.36
2018-05-23T01:50:42.494Z,82.22
2018-05-23T01:53:10.905Z,81.95
2018-05-23T01:55:39.498Z,81.75
2018-05-23T01:58:07.882Z,81.57
2018-05-23T02:00:36.985Z,81.30
2018-05-23T02:03:05.322Z,81.41
2018-05-23T02:05:33.688Z,81.79
2018-05-23T02:08:03.073Z,82.03
2018-05-23T02:10:31.790Z,81.70
2018-05-23T02:13:00.180Z,81.76
2018-05-23T02:15:28.540Z,81.73
2018-05-23T02:17:56.883Z,81.46
2018-05-23T02:20:26.374Z,80.81
2018-05-23T02:22:55.925Z,80.89
2018-05-23T02:25:24.509Z,81.04
2018-05-23T02:27:53.388Z,80.96
2018-05-23T02:30:21.802Z,81.28
2018-05-23T02:32:50.206Z,80.80
2018-05-23T02:35:18.563Z,80.90
2018-05-23T02:37:46.945Z,80.59
2018-05-23T02:40:15.360Z,80.50
2018-05-23T02:42:44.119Z,80.70
2018-05-23T02:45:12.699Z,81.10
2018-05-23T02:47:41.126Z,80.69
2018-05-23T02:50:09.502Z,80.72
2018-05-23T02:52:37.856Z,80.36
2018-05-23T02:55:06.270Z,80.28
2018-05-23T02:57:35.297Z,80.24
2018-05-23T03:00:04.379Z,80.42
2018-05-23T03:02:33.511Z,80.89
2018-05-23T03:05:01.918Z,80.47
2018-05-23T03:07:30.254Z,80.28
2018-05-23T03:09:58.966Z,80.16
2018-05-23T03:12:27.321Z,80.15
2018-05-23T03:14:55.735Z,80.09
2018-05-23T03:17:25.183Z,80.06
2018-05-23T03:19:54.421Z,80.66
2018-05-23T03:22:23.005Z,81.09
2018-05-23T03:24:51.365Z,80.69
2018-05-23T03:27:19.745Z,81.05
2018-05-23T03:29:48.265Z,81.35
2018-05-23T03:32:16.700Z,81.06
2018-05-23T03:34:45.109Z,81.67
2018-05-23T03:37:14.712Z,81.79
2018-05-23T03:39:43.091Z,81.74
2018-05-23T03:42:13.102Z,81.84
2018-05-23T03:44:41.463Z,81.66
2018-05-23T03:47:10.169Z,81.72
2018-05-23T03:49:39.148Z,81.20
2018-05-23T03:52:08.359Z,81.39
2018-05-23T03:54:37.623Z,81.61
2018-05-23T03:57:06.776Z,81.56
2018-05-23T03:59:46.893Z,81.46
2018-05-23T04:02:27.028Z,81.18
2018-05-23T04:05:08.537Z,81.54
2018-05-23T04:07:38.798Z,81.75
2018-05-23T04:10:07.265Z,81.18
2018-05-23T04:12:35.612Z,80.72
2018-05-23T04:15:04.006Z,80.70
2018-05-23T04:17:34.156Z,80.94
2018-05-23T04:20:03.442Z,80.46
2018-05-23T04:22:32.019Z,80.69
2018-05-23T04:25:01.569Z,80.82
2018-05-23T04:27:30.849Z,81.01
2018-05-23T04:29:59.515Z,80.75
2018-05-23T04:32:27.866Z,80.81
2018-05-23T04:34:56.846Z,80.36
2018-05-23T04:37:25.229Z,80.29
2018-05-23T04:39:53.609Z,79.27
2018-05-23T04:42:21.966Z,78.49
2018-05-23T04:44:50.943Z,78.86
2018-05-23T04:47:20.101Z,79.13
2018-05-23T04:49:48.474Z,78.29
2018-05-23T04:52:16.815Z,78.03
2018-05-23T04:54:45.196Z,77.99
2018-05-23T04:57:14.756Z,77.80
2018-05-23T04:59:43.122Z,77.76
2018-05-23T05:02:12.690Z,77.96
2018-05-23T05:04:41.139Z,77.41
2018-05-23T05:07:10.219Z,77.87
2018-05-23T05:09:38.989Z,77.91
2018-05-23T05:12:07.342Z,78.24
2018-05-23T05:14:36.383Z,78.07
2018-05-23T05:17:04.735Z,78.40
2018-05-23T05:19:34.735Z,77.96
2018-05-23T05:22:03.137Z,77.95
2018-05-23T05:24:32.033Z,78.91
2018-05-23T05:27:00.398Z,78.07
2018-05-23T05:29:29.590Z,78.17
2018-05-23T05:31:57.953Z,78.70
2018-05-23T05:34:27.475Z,78.79
2018-05-23T05:36:55.877Z,78.78
2018-05-23T05:39:24.617Z,78.60
2018-05-23T05:41:53.438Z,78.46
2018-05-23T05:44:21.772Z,77.69
2018-05-23T05:46:50.815Z,77.89
2018-05-23T05:49:19.208Z,77.57
2018-05-23T05:51:47.574Z,78.54
2018-05-23T05:54:15.967Z,78.35
2018-05-23T05:56:44.838Z,78.86
2018-05-23T05:59:15.887Z,78.80
2018-05-23T06:01:44.331Z,78.92
2018-05-23T06:04:12.660Z,78.86
2018-05-23T06:06:41.752Z,78.33
2018-05-23T06:09:10.129Z,77.34
2018-05-23T06:11:39.588Z,76.30
2018-05-23T06:14:08.829Z,75.96
2018-05-23T06:16:38.540Z,76.69
2018-05-23T06:19:07.309Z,76.33
2018-05-23T06:21:37.025Z,76.19
2018-05-23T06:24:05.407Z,76.68
2018-05-23T06:26:34.364Z,76.56
2018-05-23T06:29:03.425Z,75.93
2018-05-23T06:31:32.678Z,76.14
2018-05-23T06:34:02.518Z,75.38
2018-05-23T06:36:32.518Z,77.24
2018-05-23T06:39:00.843Z,77.14
2018-05-23T06:41:29.911Z,76.99
2018-05-23T06:43:59.397Z,76.15
2018-05-23T06:46:28.060Z,75.79
2018-05-23T06:48:56.389Z,76.28
2018-05-23T06:51:26.901Z,77.46
2018-05-23T06:53:55.573Z,76.59
2018-05-23T06:56:24.767Z,76.84
2018-05-23T06:58:54.628Z,76.43
2018-05-23T07:01:23.607Z,77.74
2018-05-23T07:03:52.242Z,79.51
2018-05-23T07:06:22.136Z,80.69
2018-05-23T07:08:50.920Z,80.19
2018-05-23T07:11:20.352Z,80.37
2018-05-23T07:13:48.689Z,80.23
2018-05-23T07:16:18.186Z,80.27
2018-05-23T07:18:46.528Z,80.54
2018-05-23T07:21:15.649Z,80.28
2018-05-23T07:23:44.041Z,80.35
2018-05-23T07:26:12.795Z,79.97
2018-05-23T07:28:41.914Z,80.26
2018-05-23T07:31:10.298Z,79.63
2018-05-23T07:33:38.633Z,79.86
2018-05-23T07:36:07.331Z,80.40
2018-05-23T07:38:36.562Z,79.50
2018-05-23T07:41:04.980Z,79.27
2018-05-23T07:43:33.331Z,78.31
2018-05-23T07:46:01.697Z,78.37
2018-05-23T07:48:30.090Z,76.94
2018-05-23T07:50:58.461Z,76.84
2018-05-23T07:53:26.850Z,76.30
2018-05-23T07:55:55.206Z,76.51
2018-05-23T07:58:23.942Z,74.76
2018-05-23T08:00:52.356Z,74.92
2018-05-23T08:03:20.703Z,74.16
2018-05-23T08:05:49.302Z,72.20
2018-05-23T08:08:18.535Z,72.84
2018-05-23T08:10:47.745Z,72.28
2018-05-23T08:13:16.228Z,69.18
2018-05-23T08:15:44.587Z,70.28
2018-05-23T08:18:13.526Z,69.36
2018-05-23T08:20:41.903Z,68.69
2018-05-23T08:23:10.281Z,65.60
2018-05-23T08:25:39.346Z,63.44
2018-05-23T08:28:07.725Z,64.40
2018-05-23T08:30:36.958Z,64.90
2018-05-23T08:33:05.447Z,63.99
2018-05-23T08:35:33.791Z,63.44
2018-05-23T08:38:02.422Z,64.47
2018-05-23T08:40:31.583Z,60.91
2018-05-23T08:43:00.598Z,61.22
2018-05-23T08:45:28.994Z,60.95
2018-05-23T08:47:57.324Z,60.36
2018-05-23T08:50:25.644Z,58.68
2018-05-23T08:52:54.040Z,62.03
2018-05-23T08:55:24.061Z,62.36
2018-05-23T08:57:52.414Z,59.55
2018-05-23T09:00:22.113Z,61.34
2018-05-23T09:02:50.545Z,61.49
2018-05-23T09:05:19.163Z,59.76
2018-05-23T09:07:47.525Z,60.71
2018-05-23T09:10:15.941Z,59.35
2018-05-23T09:12:45.220Z,59.03
2018-05-23T09:15:14.392Z,59.21
2018-05-23T09:17:43.622Z,59.84
2018-05-23T09:20:13.361Z,60.43
2018-05-23T09:22:41.731Z,60.33
2018-05-23T09:25:10.250Z,60.53
2018-05-23T09:27:39.463Z,61.10
2018-05-23T09:30:08.678Z,60.35
2018-05-23T09:32:37.262Z,61.46
2018-05-23T09:35:06.355Z,60.73
2018-05-23T09:37:35.885Z,60.46
2018-05-23T09:40:05.221Z,59.73
2018-05-23T09:42:34.486Z,58.72
2018-05-23T09:45:03.997Z,58.37
2018-05-23T09:47:34.418Z,59.81
2018-05-23T09:50:03.832Z,59.35
2018-05-23T09:52:32.182Z,57.96
2018-05-23T09:55:00.746Z,57.45
2018-05-23T09:57:29.898Z,57.68
2018-05-23T09:59:58.265Z,56.55
2018-05-23T10:02:26.614Z,53.52
2018-05-23T10:04:55.220Z,52.69
2018-05-23T10:07:24.800Z,53.78
2018-05-23T10:09:53.802Z,53.10
2018-05-23T10:12:22.998Z,50.96
2018-05-23T10:14:52.304Z,50.90
2018-05-23T10:17:21.468Z,50.08
2018-05-23T10:19:50.879Z,49.86
2018-05-23T10:22:20.502Z,50.31
2018-05-23T10:24:49.205Z,49.55
2018-05-23T10:27:18.597Z,50.37
2018-05-23T10:29:47.302Z,49.45
2018-05-23T10:32:15.702Z,50.75
2018-05-23T10:34:45.454Z,50.94
2018-05-23T10:37:13.825Z,49.97
2018-05-23T10:39:42.324Z,49.45
2018-05-23T10:42:11.597Z,49.47
2018-05-23T10:44:39.930Z,50.14
2018-05-23T10:47:08.362Z,48.56
2018-05-23T10:49:36.699Z,47.76
2018-05-23T10:52:05.854Z,47.83
2018-05-23T10:54:35.849Z,49.73
2018-05-23T10:57:04.702Z,45.94
2018-05-23T10:59:33.231Z,46.49
2018-05-23T11:02:01.592Z,47.23
2018-05-23T11:04:31.430Z,46.87
2018-05-23T11:07:00.723Z,47.62
2018-05-23T11:09:30.919Z,46.87
2018-05-23T11:11:59.267Z,45.79
2018-05-23T11:14:29.092Z,44.03
2018-05-23T11:16:57.917Z,45.31
2018-05-23T11:19:26.501Z,43.78
2018-05-23T11:21:54.854Z,39.42
2018-05-23T11:24:23.891Z,40.17
2018-05-23T11:26:53.920Z,40.09
2018-05-23T11:29:23.654Z,37.21
2018-05-23T11:31:52.237Z,36.76
2018-05-23T11:34:20.561Z,37.09
2018-05-23T11:36:49.667Z,38.73
2018-05-23T11:39:18.224Z,38.03
2018-05-23T11:41:46.574Z,36.97
2018-05-23T11:44:15.708Z,35.71
2018-05-23T11:46:44.164Z,37.34
2018-05-23T11:49:12.450Z,36.33
2018-05-23T11:51:40.816Z,35.56
2018-05-23T11:54:10.170Z,36.62
2018-05-23T11:56:39.733Z,36.10
2018-05-23T11:59:09.027Z,35.72
2018-05-23T12:01:37.559Z,36.47
2018-05-23T12:04:05.887Z,34.98
2018-05-23T12:06:35.218Z,35.41
2018-05-23T12:09:03.604Z,35.59
2018-05-23T12:11:32.438Z,36.11
2018-05-23T12:14:01.769Z,35.40
2018-05-23T12:16:31.029Z,34.99
2018-05-23T12:19:00.021Z,35.00
2018-05-23T12:21:30.384Z,32.23
2018-05-23T12:23:59.337Z,32.81
2018-05-23T12:26:28.125Z,33.47
2018-05-23T12:28:57.615Z,33.54
2018-05-23T12:31:26.260Z,33.60
2018-05-23T12:33:54.759Z,33.49
2018-05-23T12:36:23.137Z,32.74
2018-05-23T12:38:52.953Z,32.73
2018-05-23T12:41:22.499Z,32.44
2018-05-23T12:43:52.236Z,33.02
2018-05-23T12:46:20.738Z,32.90
2018-05-23T12:48:50.042Z,33.10
2018-05-23T12:51:18.388Z,31.64
2018-05-23T12:53:46.785Z,32.47
2018-05-23T12:56:15.108Z,33.54
2018-05-23T12:58:43.691Z,32.89
2018-05-23T13:01:12.519Z,32.15
2018-05-23T13:03:40.918Z,31.65
2018-05-23T13:06:09.826Z,30.23
2018-05-23T13:08:40.861Z,29.90
2018-05-23T13:11:09.882Z,29.38
2018-05-23T13:13:38.261Z,29.64
2018-05-23T13:16:06.615Z,29.94
2018-05-23T13:18:35.294Z,31.06
2018-05-23T13:21:03.644Z,30.78
2018-05-23T13:23:32.035Z,30.55
2018-05-23T13:26:00.718Z,28.78
2018-05-23T13:28:29.052Z,29.80
2018-05-23T13:30:57.432Z,29.53
2018-05-23T13:33:31.451Z,29.11
2018-05-23T13:35:59.818Z,28.84
2018-05-23T13:38:28.194Z,28.44
2018-05-23T13:40:56.898Z,27.51
2018-05-23T13:43:26.235Z,26.13
2018-05-23T13:45:54.584Z,26.39
2018-05-23T13:48:22.933Z,28.03
2018-05-23T13:50:51.305Z,29.24
2018-05-23T13:53:19.731Z,28.42
2018-05-23T13:55:48.908Z,28.58
2018-05-23T13:58:17.273Z,28.03
2018-05-23T14:00:46.606Z,27.52
2018-05-23T14:03:14.966Z,27.36
2018-05-23T14:05:44.464Z,27.48
2018-05-23T14:08:12.872Z,26.59
2018-05-23T14:10:41.896Z,26.81
2018-05-23T14:13:10.265Z,27.64
2018-05-23T14:15:39.381Z,26.95
2018-05-23T14:18:07.867Z,26.00
2018-05-23T14:20:36.192Z,26.07
2018-05-23T14:23:04.942Z,25.78
2018-05-23T14:25:34.711Z,26.61
2018-05-23T14:28:03.072Z,26.25
2018-05-23T14:30:32.372Z,25.98
2018-05-23T14:33:00.717Z,25.81
2018-05-23T14:35:29.102Z,26.27
2018-05-23T14:37:58.802Z,25.80
2018-05-23T14:40:27.140Z,26.32
2018-05-23T14:42:56.524Z,27.65
2018-05-23T14:45:24.915Z,28.64
2018-05-23T14:47:53.273Z,29.07
2018-05-23T14:50:23.303Z,28.54
2018-05-23T14:52:51.711Z,28.72
2018-05-23T14:55:20.121Z,28.90
2018-05-23T14:57:48.610Z,28.48
2018-05-23T15:00:17.389Z,27.52
2018-05-23T15:02:46.983Z,28.39
2018-05-23T15:05:15.358Z,27.31
2018-05-23T15:07:44.634Z,27.58
2018-05-23T15:10:13.347Z,28.23
2018-05-23T15:12:41.687Z,29.16
2018-05-23T15:15:10.095Z,30.94
2018-05-23T15:17:38.820Z,31.60
2018-05-23T15:20:07.230Z,32.55
2018-05-23T15:22:35.610Z,33.66
2018-05-23T15:25:04.527Z,33.76
2018-05-23T15:27:36.435Z,34.21
2018-05-23T15:30:04.821Z,35.67
2018-05-23T15:32:34.518Z,35.83
2018-05-23T15:35:02.906Z,36.28
2018-05-23T15:37:32.842Z,37.13
2018-05-23T15:40:02.772Z,36.79
2018-05-23T15:42:31.124Z,36.32
2018-05-23T15:45:02.113Z,36.36
2018-05-23T15:47:30.475Z,36.16
2018-05-23T15:49:58.855Z,36.41
2018-05-23T15:52:27.309Z,37.00
2018-05-23T15:54:56.549Z,37.15
2018-05-23T15:57:24.914Z,36.89
2018-05-23T15:59:55.451Z,37.23
2018-05-23T16:02:24.094Z,37.13
2018-05-23T16:04:53.985Z,37.51
2018-05-23T16:07:22.752Z,38.10
2018-05-23T16:09:51.076Z,38.08
2018-05-23T16:12:21.529Z,37.83
2018-05-23T16:14:50.403Z,38.03
2018-05-23T16:17:19.914Z,38.34
2018-05-23T16:19:48.255Z,38.63
2018-05-23T16:22:17.507Z,37.61
2018-05-23T16:24:45.969Z,37.59
2018-05-23T16:27:14.391Z,37.82
2018-05-23T16:29:43.494Z,39.17
2018-05-23T16:32:13.821Z,37.58
2018-05-23T16:34:43.004Z,38.85
2018-05-23T16:37:12.868Z,38.79
2018-05-23T16:39:43.058Z,38.23
2018-05-23T16:42:11.385Z,38.79
2018-05-23T16:44:39.781Z,39.07
2018-05-23T16:47:08.157Z,39.34
2018-05-23T16:49:37.905Z,39.55
2018-05-23T16:52:06.471Z,40.12
2018-05-23T16:54:35.722Z,40.03
2018-05-23T16:57:04.974Z,40.28
2018-05-23T16:59:33.962Z,40.68
2018-05-23T17:02:02.300Z,41.40
2018-05-23T17:04:32.837Z,41.07
2018-05-23T17:07:02.187Z,40.86
2018-05-23T17:09:32.125Z,40.92
2018-05-23T17:12:00.536Z,41.37
2018-05-23T17:14:29.830Z,42.12
2018-05-23T17:16:58.398Z,42.74
2018-05-23T17:19:26.799Z,42.92
2018-05-23T17:21:55.606Z,43.52
2018-05-23T17:24:24.105Z,43.95
2018-05-23T17:26:52.385Z,44.32
2018-05-23T17:29:20.774Z,44.14
2018-05-23T17:31:49.196Z,44.88
2018-05-23T17:34:17.592Z,45.26
2018-05-23T17:36:46.337Z,45.62
2018-05-23T17:39:15.809Z,45.64
2018-05-23T17:41:44.971Z,46.13
2018-05-23T17:44:13.891Z,46.40
2018-05-23T17:46:42.309Z,46.76
2018-05-23T17:49:11.583Z,46.99
2018-05-23T17:51:40.749Z,47.80
2018-05-23T17:54:09.124Z,48.50
2018-05-23T17:56:38.441Z,48.77
2018-05-23T17:59:07.570Z,49.39
2018-05-23T18:01:36.591Z,50.18
2018-05-23T18:04:04.923Z,50.76
2018-05-23T18:06:33.416Z,50.83
2018-05-23T18:09:03.209Z,51.19
2018-05-23T18:11:32.473Z,51.27
2018-05-23T18:14:00.832Z,51.47
2018-05-23T18:16:29.481Z,52.25
2018-05-23T18:18:58.065Z,52.67
2018-05-23T18:21:26.425Z,52.84
2018-05-23T18:23:54.756Z,53.08
2018-05-23T18:26:23.747Z,53.16
2018-05-23T18:28:52.095Z,53.33
2018-05-23T18:31:21.296Z,53.52
2018-05-23T18:33:49.692Z,53.72
2018-05-23T18:36:19.039Z,53.08
2018-05-23T18:38:47.847Z,52.77
2018-05-23T18:41:16.238Z,52.75
2018-05-23T18:43:44.810Z,52.71
2018-05-23T18:46:13.176Z,52.77
2018-05-23T18:48:42.442Z,53.02
2018-05-23T18:51:11.878Z,53.32
2018-05-23T18:53:40.196Z,52.90
2018-05-23T18:56:08.730Z,52.95
2018-05-23T18:58:37.677Z,53.39
2018-05-23T19:01:06.798Z,53.90
2018-05-23T19:03:35.162Z,53.20
2018-05-23T19:06:03.809Z,53.72
2018-05-23T19:08:33.068Z,53.53
2018-05-23T19:11:01.401Z,53.58
2018-05-23T19:13:29.775Z,53.93
2018-05-23T19:15:58.101Z,53.32
2018-05-23T19:18:26.457Z,53.59
2018-05-23T19:20:56.401Z,53.64
2018-05-23T19:23:25.482Z,53.71
2018-05-23T19:25:53.865Z,53.89
2018-05-23T19:28:23.079Z,53.77
2018-05-23T19:30:51.421Z,53.73
2018-05-23T19:33:19.815Z,53.47
2018-05-23T19:35:49.314Z,53.03
2018-05-23T19:38:18.066Z,53.69
2018-05-23T19:40:47.331Z,53.21
2018-05-23T19:43:16.418Z,53.52
2018-05-23T19:45:44.783Z,53.39
2018-05-23T19:48:14.122Z,52.89
2018-05-23T19:50:42.465Z,53.51
2018-05-23T19:53:10.813Z,53.48
2018-05-23T19:55:39.814Z,54.11
2018-05-23T19:58:08.908Z,54.24
2018-05-23T20:00:37.654Z,53.74
2018-05-23T20:03:06.743Z,54.69
2018-05-23T20:05:36.017Z,55.10
2018-05-23T20:08:05.192Z,54.99
2018-05-23T20:10:34.145Z,55.47
2018-05-23T20:13:02.528Z,55.25
2018-05-23T20:15:30.890Z,55.49
2018-05-23T20:17:59.265Z,55.00
2018-05-23T20:20:27.623Z,55.28
2018-05-23T20:22:56.899Z,55.16
2018-05-23T20:25:25.525Z,54.72
2018-05-23T20:27:54.619Z,54.77
2018-05-23T20:30:23.429Z,54.67
2018-05-23T20:32:52.624Z,55.48
2018-05-23T20:35:21.036Z,55.54
2018-05-23T20:37:50.815Z,56.03
2018-05-23T20:40:20.424Z,56.08
2018-05-23T20:42:48.847Z,56.14
2018-05-23T20:45:17.583Z,56.03
2018-05-23T20:47:46.233Z,56.79
2018-05-23T20:50:15.478Z,57.03
2018-05-23T20:52:44.605Z,56.72
2018-05-23T20:55:12.969Z,56.95
2018-05-23T20:57:42.289Z,57.55
2018-05-23T21:00:11.511Z,56.84
2018-05-23T21:02:40.067Z,57.01
2018-05-23T21:05:09.887Z,57.08
2018-05-23T21:07:38.173Z,56.77
2018-05-23T21:10:06.797Z,57.30
2018-05-23T21:12:35.598Z,57.06
2018-05-23T21:15:05.076Z,57.66
2018-05-23T21:17:34.577Z,57.89
2018-05-23T21:20:02.937Z,58.03
2018-05-23T21:22:31.288Z,59.63
2018-05-23T21:24:59.697Z,60.19
2018-05-23T21:27:28.619Z,60.10
2018-05-23T21:29:58.546Z,60.52
2018-05-23T21:32:26.868Z,60.17
2018-05-23T21:34:55.577Z,59.87
2018-05-23T21:37:24.669Z,59.94
2018-05-23T21:39:53.077Z,60.08
2018-05-23T21:42:21.660Z,59.76
2018-05-23T21:44:51.515Z,59.93
2018-05-23T21:47:19.843Z,59.48
2018-05-23T21:49:48.194Z,59.36
2018-05-23T21:52:16.685Z,59.25
2018-05-23T21:54:45.349Z,59.69
2018-05-23T21:57:13.742Z,59.36
2018-05-23T21:59:42.369Z,59.28
2018-05-23T22:02:10.693Z,59.80
2018-05-23T22:04:39.313Z,59.67
2018-05-23T22:07:07.692Z,59.66
2018-05-23T22:09:36.119Z,59.47
2018-05-23T22:12:05.293Z,60.12
2018-05-23T22:14:34.079Z,60.23
2018-05-23T22:17:02.737Z,59.80
2018-05-23T22:19:31.439Z,59.46
2018-05-23T22:21:59.789Z,59.36
2018-05-23T22:24:29.159Z,59.26
2018-05-23T22:26:57.466Z,59.72
2018-05-23T22:29:25.833Z,59.58
2018-05-23T22:31:54.302Z,59.47
2018-05-23T22:34:22.660Z,60.15
2018-05-23T22:36:50.986Z,59.92
2018-05-23T22:39:19.346Z,60.06
2018-05-23T22:41:47.673Z,59.79
2018-05-23T22:44:16.028Z,59.30
2018-05-23T22:46:44.922Z,59.45
2018-05-23T22:49:14.010Z,59.44
2018-05-23T22:51:43.283Z,59.83
2018-05-23T22:54:12.094Z,59.72
2018-05-23T22:56:41.233Z,59.96
2018-05-23T22:59:09.918Z,59.37
2018-05-23T23:01:40.426Z,59.03
2018-05-23T23:04:09.426Z,59.36
2018-05-23T23:06:39.011Z,59.22
2018-05-23T23:09:07.384Z,59.27
2018-05-23T23:11:35.768Z,58.95
2018-05-23T23:14:04.854Z,59.37
2018-05-23T23:16:34.093Z,59.47
2018-05-23T23:19:02.765Z,60.14
2018-05-23T23:21:31.677Z,60.07
2018-05-23T23:24:00.878Z,60.00
2018-05-23T23:26:30.023Z,59.53
2018-05-23T23:28:59.329Z,59.76
2018-05-23T23:31:28.453Z,60.17
2018-05-23T23:33:56.836Z,60.15
2018-05-23T23:36:25.612Z,60.24
2018-05-23T23:38:54.745Z,60.02
2018-05-23T23:41:23.511Z,60.17
2018-05-23T23:43:51.857Z,59.78
2018-05-23T23:46:20.258Z,59.44
2018-05-23T23:48:50.500Z,59.20
2018-05-23T23:51:19.587Z,58.75
2018-05-23T23:53:47.930Z,58.81
2018-05-23T23:56:16.299Z,58.93
2018-05-23T23:58:44.974Z,58.71
